Time;durP1;ratioP1;P1;durP2;ratioP2;P2;SDS_P1;SDS_P2;PMS_P1;PMS_P2;Temp;Humidity;BMP_temperature;BMP_pressure;BME280_temperature;BME280_humidity;BME280_pressure;Samples;Min_cycle;Max_cycle;Signal;HPM_P1;HPM_P2
2022/01/28 00:00:53;;;;;;;5.299999;3.8;;;;;;;3.14;88.26172;96037.14;;;;
2022/01/28 00:02:05;;;;;;;5.299999;3.8;;;;;;;3.14;88.26172;96037.14;;;;
2022/01/28 00:03:07;;;;;;;5.299999;3.8;;;;;;;3.14;88.26172;96037.14;;;;
2022/01/28 00:04:13;;;;;;;5.299999;3.8;;;;;;;3.14;88.26172;96037.14;;;;
2022/01/28 00:05:18;;;;;;;5.299999;3.8;;;;;;;3.14;88.26172;96037.14;;;;
2022/01/28 00:06:19;;;;;;;5.299999;3.8;;;;;;;3.14;88.26172;96037.14;;;;
2022/01/28 00:07:19;;;;;;;5.299999;3.8;;;;;;;3.14;88.26172;96037.14;;;;
2022/01/28 00:08:20;;;;;;;5.299999;3.8;;;;;;;3.14;88.26172;96037.14;;;;
2022/01/28 00:09:21;;;;;;;5.299999;3.8;;;;;;;3.14;88.26172;96037.14;;;;
2022/01/28 00:10:21;;;;;;;5.15;3.9;;;;;;;3.11;88.42578;96045.5;;;;
2022/01/28 00:11:24;;;;;;;5.15;3.9;;;;;;;3.11;88.42578;96045.5;;;;
2022/01/28 00:12:26;;;;;;;5.15;3.9;;;;;;;3.11;88.42578;96045.5;;;;
2022/01/28 00:13:32;;;;;;;5.15;3.9;;;;;;;3.11;88.42578;96045.5;;;;
2022/01/28 00:14:41;;;;;;;5.15;3.9;;;;;;;3.11;88.42578;96045.5;;;;
2022/01/28 00:15:48;;;;;;;5.15;3.9;;;;;;;3.11;88.42578;96045.5;;;;
2022/01/28 00:17:20;;;;;;;5.15;3.9;;;;;;;3.11;88.42578;96045.5;;;;
2022/01/28 00:18:47;;;;;;;5.15;3.9;;;;;;;3.11;88.42578;96045.5;;;;
2022/01/28 00:20:10;;;;;;;5.15;3.9;;;;;;;3.11;88.42578;96045.5;;;;
2022/01/28 00:37:01;;;;;;;5.55;3.9;;;;;;;3.17;89.37988;96063.05;;;;
2022/01/28 00:38:08;;;;;;;5.55;3.9;;;;;;;3.17;89.37988;96063.05;;;;
2022/01/28 00:39:08;;;;;;;5.55;3.9;;;;;;;3.17;89.37988;96063.05;;;;
2022/01/28 00:40:09;;;;;;;5.55;3.9;;;;;;;3.17;89.37988;96063.05;;;;
2022/01/28 00:41:10;;;;;;;5.55;3.9;;;;;;;3.17;89.37988;96063.05;;;;
2022/01/28 00:42:11;;;;;;;5.95;4.200001;;;;;;;3.19;89.7832;96076.98;;;;
2022/01/28 00:43:11;;;;;;;5.95;4.200001;;;;;;;3.19;89.7832;96076.98;;;;
2022/01/28 00:44:12;;;;;;;5.95;4.200001;;;;;;;3.19;89.7832;96076.98;;;;
2022/01/28 00:45:12;;;;;;;5.95;4.200001;;;;;;;3.19;89.7832;96076.98;;;;
2022/01/28 00:46:13;;;;;;;5.95;4.200001;;;;;;;3.19;89.7832;96076.98;;;;
2022/01/28 00:47:14;;;;;;;5.95;4.200001;;;;;;;3.19;89.7832;96076.98;;;;
2022/01/28 00:48:14;;;;;;;5.95;4.200001;;;;;;;3.19;89.7832;96076.98;;;;
2022/01/28 00:49:15;;;;;;;5.95;4.200001;;;;;;;3.19;89.7832;96076.98;;;;
2022/01/28 00:50:16;;;;;;;5.95;4.200001;;;;;;;3.19;89.7832;96076.98;;;;
2022/01/28 00:51:17;;;;;;;5.95;4.200001;;;;;;;3.19;89.7832;96076.98;;;;
2022/01/28 00:52:17;;;;;;;5.75;4.25;;;;;;;3.11;90.50879;96081.52;;;;
2022/01/28 00:53:18;;;;;;;5.75;4.25;;;;;;;3.11;90.50879;96081.52;;;;
2022/01/28 00:54:18;;;;;;;5.75;4.25;;;;;;;3.11;90.50879;96081.52;;;;
2022/01/28 00:55:19;;;;;;;5.75;4.25;;;;;;;3.11;90.50879;96081.52;;;;
2022/01/28 00:56:20;;;;;;;5.75;4.25;;;;;;;3.11;90.50879;96081.52;;;;
2022/01/28 00:57:20;;;;;;;5.75;4.25;;;;;;;3.11;90.50879;96081.52;;;;
2022/01/28 00:58:21;;;;;;;5.75;4.25;;;;;;;3.11;90.50879;96081.52;;;;
2022/01/28 00:59:21;;;;;;;5.75;4.25;;;;;;;3.11;90.50879;96081.52;;;;
2022/01/28 01:00:22;;;;;;;5.75;4.25;;;;;;;3.11;90.50879;96081.52;;;;
2022/01/28 01:01:22;;;;;;;5.75;4.25;;;;;;;3.11;90.50879;96081.52;;;;
2022/01/28 01:02:23;;;;;;;5.75;4.25;;;;;;;3.11;90.50879;96081.52;;;;
2022/01/28 01:03:24;;;;;;;7;4.95;;;;;;;3.02;91.36816;96092.3;;;;
2022/01/28 01:04:24;;;;;;;7;4.95;;;;;;;3.02;91.36816;96092.3;;;;
2022/01/28 01:05:25;;;;;;;7;4.95;;;;;;;3.02;91.36816;96092.3;;;;
2022/01/28 01:06:26;;;;;;;7;4.95;;;;;;;3.02;91.36816;96092.3;;;;
2022/01/28 01:07:27;;;;;;;7;4.95;;;;;;;3.02;91.36816;96092.3;;;;
2022/01/28 01:08:27;;;;;;;7;4.95;;;;;;;3.02;91.36816;96092.3;;;;
2022/01/28 01:09:28;;;;;;;7;4.95;;;;;;;3.02;91.36816;96092.3;;;;
2022/01/28 01:10:29;;;;;;;7;4.95;;;;;;;3.02;91.36816;96092.3;;;;
2022/01/28 01:11:29;;;;;;;7;4.95;;;;;;;3.02;91.36816;96092.3;;;;
2022/01/28 01:12:33;;;;;;;7;4.95;;;;;;;3.02;91.36816;96092.3;;;;
2022/01/28 01:13:37;;;;;;;7.6;4.7;;;;;;;2.98;92.06055;96091.46;;;;
2022/01/28 01:14:38;;;;;;;7.6;4.7;;;;;;;2.98;92.06055;96091.46;;;;
2022/01/28 01:15:43;;;;;;;7.6;4.7;;;;;;;2.98;92.06055;96091.46;;;;
2022/01/28 01:16:58;;;;;;;7.6;4.7;;;;;;;2.98;92.06055;96091.46;;;;
2022/01/28 01:18:05;;;;;;;7.6;4.7;;;;;;;2.98;92.06055;96091.46;;;;
2022/01/28 01:19:17;;;;;;;7.6;4.7;;;;;;;2.98;92.06055;96091.46;;;;
2022/01/28 01:20:34;;;;;;;7.6;4.7;;;;;;;2.98;92.06055;96091.46;;;;
2022/01/28 01:21:38;;;;;;;7.6;4.7;;;;;;;2.98;92.06055;96091.46;;;;
2022/01/28 01:22:41;;;;;;;7.6;4.7;;;;;;;2.98;92.06055;96091.46;;;;
2022/01/28 01:23:50;;;;;;;7.6;4.7;;;;;;;2.98;92.06055;96091.46;;;;
2022/01/28 01:24:59;;;;;;;8.350001;5.45;;;;;;;2.98;92.1543;96126.12;;;;
2022/01/28 01:26:08;;;;;;;8.350001;5.45;;;;;;;2.98;92.1543;96126.12;;;;
2022/01/28 01:27:08;;;;;;;8.350001;5.45;;;;;;;2.98;92.1543;96126.12;;;;
2022/01/28 01:28:10;;;;;;;8.350001;5.45;;;;;;;2.98;92.1543;96126.12;;;;
2022/01/28 01:29:13;;;;;;;8.350001;5.45;;;;;;;2.98;92.1543;96126.12;;;;
2022/01/28 01:30:17;;;;;;;8.350001;5.45;;;;;;;2.98;92.1543;96126.12;;;;
2022/01/28 01:31:19;;;;;;;8.350001;5.45;;;;;;;2.98;92.1543;96126.12;;;;
2022/01/28 01:32:19;;;;;;;8.350001;5.45;;;;;;;2.98;92.1543;96126.12;;;;
2022/01/28 01:33:21;;;;;;;8.350001;5.45;;;;;;;2.98;92.1543;96126.12;;;;
2022/01/28 01:34:23;;;;;;;8.350001;5.45;;;;;;;2.98;92.1543;96126.12;;;;
2022/01/28 01:35:23;;;;;;;9.450001;5.75;;;;;;;2.96;92.92383;96141.39;;;;
2022/01/28 01:36:24;;;;;;;9.450001;5.75;;;;;;;2.96;92.92383;96141.39;;;;
2022/01/28 01:37:24;;;;;;;9.450001;5.75;;;;;;;2.96;92.92383;96141.39;;;;
2022/01/28 01:38:27;;;;;;;9.450001;5.75;;;;;;;2.96;92.92383;96141.39;;;;
2022/01/28 01:39:33;;;;;;;9.450001;5.75;;;;;;;2.96;92.92383;96141.39;;;;
2022/01/28 01:40:40;;;;;;;9.450001;5.75;;;;;;;2.96;92.92383;96141.39;;;;
2022/01/28 01:41:45;;;;;;;9.450001;5.75;;;;;;;2.96;92.92383;96141.39;;;;
2022/01/28 01:42:50;;;;;;;9.450001;5.75;;;;;;;2.96;92.92383;96141.39;;;;
2022/01/28 01:43:57;;;;;;;9.450001;5.75;;;;;;;2.96;92.92383;96141.39;;;;
2022/01/28 01:45:37;;;;;;;9.450001;5.75;;;;;;;2.96;92.92383;96141.39;;;;
2022/01/28 01:46:57;;;;;;;8.249999;5.299999;;;;;;;2.93;93.32617;96119.03;;;;
2022/01/28 01:53:18;;;;;;;8.249999;5.299999;;;;;;;2.93;93.32617;96119.03;;;;
2022/01/28 01:54:19;;;;;;;8.249999;5.299999;;;;;;;2.93;93.32617;96119.03;;;;
2022/01/28 01:55:19;;;;;;;8.249999;5.299999;;;;;;;2.93;93.32617;96119.03;;;;
2022/01/28 01:56:20;;;;;;;8.350001;5.749999;;;;;;;2.72;93.10059;96148.16;;;;
2022/01/28 01:57:22;;;;;;;8.350001;5.749999;;;;;;;2.72;93.10059;96148.16;;;;
2022/01/28 01:58:29;;;;;;;8.350001;5.749999;;;;;;;2.72;93.10059;96148.16;;;;
2022/01/28 01:59:31;;;;;;;8.350001;5.749999;;;;;;;2.72;93.10059;96148.16;;;;
2022/01/28 02:00:32;;;;;;;8.350001;5.749999;;;;;;;2.72;93.10059;96148.16;;;;
2022/01/28 02:01:33;;;;;;;8.350001;5.749999;;;;;;;2.72;93.10059;96148.16;;;;
2022/01/28 02:02:33;;;;;;;8.350001;5.749999;;;;;;;2.72;93.10059;96148.16;;;;
2022/01/28 02:03:34;;;;;;;8.350001;5.749999;;;;;;;2.72;93.10059;96148.16;;;;
2022/01/28 02:04:35;;;;;;;8.350001;5.749999;;;;;;;2.72;93.10059;96148.16;;;;
2022/01/28 02:05:36;;;;;;;8.350001;5.749999;;;;;;;2.72;93.10059;96148.16;;;;
2022/01/28 02:06:37;;;;;;;8.350001;5.749999;;;;;;;2.72;93.10059;96148.16;;;;
2022/01/28 02:07:39;;;;;;;7.550002;5.7;;;;;;;2.46;93.73535;96154.05;;;;
2022/01/28 02:08:44;;;;;;;7.550002;5.7;;;;;;;2.46;93.73535;96154.05;;;;
2022/01/28 02:09:45;;;;;;;7.550002;5.7;;;;;;;2.46;93.73535;96154.05;;;;
2022/01/28 02:10:45;;;;;;;7.550002;5.7;;;;;;;2.46;93.73535;96154.05;;;;
2022/01/28 02:11:46;;;;;;;7.550002;5.7;;;;;;;2.46;93.73535;96154.05;;;;
2022/01/28 02:12:47;;;;;;;7.550002;5.7;;;;;;;2.46;93.73535;96154.05;;;;
2022/01/28 02:13:49;;;;;;;7.550002;5.7;;;;;;;2.46;93.73535;96154.05;;;;
2022/01/28 02:14:50;;;;;;;7.550002;5.7;;;;;;;2.46;93.73535;96154.05;;;;
2022/01/28 02:15:51;;;;;;;7.550002;5.7;;;;;;;2.46;93.73535;96154.05;;;;
2022/01/28 02:16:52;;;;;;;7.550002;5.7;;;;;;;2.46;93.73535;96154.05;;;;
2022/01/28 02:17:52;;;;;;;10.15;6.299999;;;;;;;2.07;94.83789;96150.3;;;;
2022/01/28 02:18:55;;;;;;;10.15;6.299999;;;;;;;2.07;94.83789;96150.3;;;;
2022/01/28 02:19:56;;;;;;;10.15;6.299999;;;;;;;2.07;94.83789;96150.3;;;;
2022/01/28 02:21:04;;;;;;;10.15;6.299999;;;;;;;2.07;94.83789;96150.3;;;;
2022/01/28 02:22:05;;;;;;;10.15;6.299999;;;;;;;2.07;94.83789;96150.3;;;;
2022/01/28 02:23:06;;;;;;;10.15;6.299999;;;;;;;2.07;94.83789;96150.3;;;;
2022/01/28 02:24:07;;;;;;;10.15;6.299999;;;;;;;2.07;94.83789;96150.3;;;;
2022/01/28 02:25:08;;;;;;;10.15;6.299999;;;;;;;2.07;94.83789;96150.3;;;;
2022/01/28 02:26:20;;;;;;;10.15;6.299999;;;;;;;2.07;94.83789;96150.3;;;;
2022/01/28 02:27:21;;;;;;;10.15;6.299999;;;;;;;2.07;94.83789;96150.3;;;;
2022/01/28 02:28:23;;;;;;;11.2;6.349999;;;;;;;1.83;95.89844;96176.45;;;;
2022/01/28 02:29:28;;;;;;;11.2;6.349999;;;;;;;1.83;95.89844;96176.45;;;;
2022/01/28 02:30:29;;;;;;;11.2;6.349999;;;;;;;1.83;95.89844;96176.45;;;;
2022/01/28 02:31:30;;;;;;;11.2;6.349999;;;;;;;1.83;95.89844;96176.45;;;;
2022/01/28 02:32:30;;;;;;;11.2;6.349999;;;;;;;1.83;95.89844;96176.45;;;;
2022/01/28 02:33:31;;;;;;;11.2;6.349999;;;;;;;1.83;95.89844;96176.45;;;;
2022/01/28 02:34:33;;;;;;;11.2;6.349999;;;;;;;1.83;95.89844;96176.45;;;;
2022/01/28 02:35:34;;;;;;;11.2;6.349999;;;;;;;1.83;95.89844;96176.45;;;;
2022/01/28 02:36:35;;;;;;;11.2;6.349999;;;;;;;1.83;95.89844;96176.45;;;;
2022/01/28 02:37:36;;;;;;;11.2;6.349999;;;;;;;1.83;95.89844;96176.45;;;;
2022/01/28 02:38:37;;;;;;;11.2;6.349999;;;;;;;1.83;95.89844;96176.45;;;;
2022/01/28 02:39:37;;;;;;;10.05;6.2;;;;;;;1.66;96.44531;96183.09;;;;
2022/01/28 02:40:40;;;;;;;10.05;6.2;;;;;;;1.66;96.44531;96183.09;;;;
2022/01/28 02:41:46;;;;;;;10.05;6.2;;;;;;;1.66;96.44531;96183.09;;;;
2022/01/28 02:42:55;;;;;;;10.05;6.2;;;;;;;1.66;96.44531;96183.09;;;;
2022/01/28 02:44:07;;;;;;;10.05;6.2;;;;;;;1.66;96.44531;96183.09;;;;
2022/01/28 02:45:14;;;;;;;10.05;6.2;;;;;;;1.66;96.44531;96183.09;;;;
2022/01/28 02:46:17;;;;;;;10.05;6.2;;;;;;;1.66;96.44531;96183.09;;;;
2022/01/28 02:47:29;;;;;;;10.05;6.2;;;;;;;1.66;96.44531;96183.09;;;;
2022/01/28 02:48:32;;;;;;;10.05;6.2;;;;;;;1.66;96.44531;96183.09;;;;
2022/01/28 02:49:36;;;;;;;10.2;6.05;;;;;;;1.68;97.31348;96207.73;;;;
2022/01/28 02:50:42;;;;;;;10.2;6.05;;;;;;;1.68;97.31348;96207.73;;;;
2022/01/28 02:51:43;;;;;;;10.2;6.05;;;;;;;1.68;97.31348;96207.73;;;;
2022/01/28 02:52:54;;;;;;;10.2;6.05;;;;;;;1.68;97.31348;96207.73;;;;
2022/01/28 02:53:57;;;;;;;10.2;6.05;;;;;;;1.68;97.31348;96207.73;;;;
2022/01/28 02:54:59;;;;;;;10.2;6.05;;;;;;;1.68;97.31348;96207.73;;;;
2022/01/28 02:56:03;;;;;;;10.2;6.05;;;;;;;1.68;97.31348;96207.73;;;;
2022/01/28 02:57:05;;;;;;;10.2;6.05;;;;;;;1.68;97.31348;96207.73;;;;
2022/01/28 02:58:24;;;;;;;10.2;6.05;;;;;;;1.68;97.31348;96207.73;;;;
2022/01/28 02:59:25;;;;;;;10.2;6.05;;;;;;;1.68;97.31348;96207.73;;;;
2022/01/28 03:00:26;;;;;;;11.65;6.750001;;;;;;;1.85;97.16211;96209.07;;;;
2022/01/28 03:01:26;;;;;;;11.65;6.750001;;;;;;;1.85;97.16211;96209.07;;;;
2022/01/28 03:02:27;;;;;;;11.65;6.750001;;;;;;;1.85;97.16211;96209.07;;;;
2022/01/28 03:03:27;;;;;;;11.65;6.750001;;;;;;;1.85;97.16211;96209.07;;;;
2022/01/28 03:04:56;;;;;;;11.65;6.750001;;;;;;;1.85;97.16211;96209.07;;;;
2022/01/28 03:05:57;;;;;;;11.65;6.750001;;;;;;;1.85;97.16211;96209.07;;;;
2022/01/28 03:06:58;;;;;;;11.65;6.750001;;;;;;;1.85;97.16211;96209.07;;;;
2022/01/28 03:08:01;;;;;;;11.65;6.750001;;;;;;;1.85;97.16211;96209.07;;;;
2022/01/28 03:09:12;;;;;;;11.65;6.750001;;;;;;;1.85;97.16211;96209.07;;;;
2022/01/28 03:10:27;;;;;;;11.65;6.750001;;;;;;;1.85;97.16211;96209.07;;;;
2022/01/28 03:11:43;;;;;;;12.15;6.8;;;;;;;1.98;97.00684;96206.7;;;;
2022/01/28 03:13:01;;;;;;;12.15;6.8;;;;;;;1.98;97.00684;96206.7;;;;
2022/01/28 03:14:15;;;;;;;12.15;6.8;;;;;;;1.98;97.00684;96206.7;;;;
2022/01/28 03:15:20;;;;;;;12.15;6.8;;;;;;;1.98;97.00684;96206.7;;;;
2022/01/28 03:16:22;;;;;;;12.15;6.8;;;;;;;1.98;97.00684;96206.7;;;;
2022/01/28 03:17:49;;;;;;;12.15;6.8;;;;;;;1.98;97.00684;96206.7;;;;
2022/01/28 03:18:53;;;;;;;12.15;6.8;;;;;;;1.98;97.00684;96206.7;;;;
2022/01/28 03:19:55;;;;;;;12.15;6.8;;;;;;;1.98;97.00684;96206.7;;;;
2022/01/28 03:21:01;;;;;;;12.15;6.8;;;;;;;1.98;97.00684;96206.7;;;;
2022/01/28 03:22:04;;;;;;;12.15;6.8;;;;;;;1.98;97.00684;96206.7;;;;
2022/01/28 03:23:05;;;;;;;12.15;6.8;;;;;;;1.98;97.00684;96206.7;;;;
2022/01/28 03:24:07;;;;;;;12.15;6.8;;;;;;;1.98;97.00684;96206.7;;;;
2022/01/28 03:25:09;;;;;;;12.15;6.8;;;;;;;1.98;97.00684;96206.7;;;;
2022/01/28 03:26:09;;;;;;;12.15;6.8;;;;;;;1.98;97.00684;96206.7;;;;
2022/01/28 03:27:18;;;;;;;12.15;6.8;;;;;;;1.98;97.00684;96206.7;;;;
2022/01/28 03:28:20;;;;;;;12.15;6.8;;;;;;;1.98;97.00684;96206.7;;;;
2022/01/28 03:29:21;;;;;;;12.15;6.8;;;;;;;1.98;97.00684;96206.7;;;;
2022/01/28 03:30:21;;;;;;;12.15;6.8;;;;;;;1.98;97.00684;96206.7;;;;
2022/01/28 03:31:23;;;;;;;12.15;6.8;;;;;;;1.98;97.00684;96206.7;;;;
2022/01/28 03:32:23;;;;;;;10.65;6.349999;;;;;;;2.23;97.33301;96228.53;;;;
2022/01/28 03:33:24;;;;;;;10.65;6.349999;;;;;;;2.23;97.33301;96228.53;;;;
2022/01/28 03:34:24;;;;;;;10.65;6.349999;;;;;;;2.23;97.33301;96228.53;;;;
2022/01/28 03:35:25;;;;;;;10.65;6.349999;;;;;;;2.23;97.33301;96228.53;;;;
2022/01/28 03:36:25;;;;;;;10.65;6.349999;;;;;;;2.23;97.33301;96228.53;;;;
2022/01/28 03:37:26;;;;;;;10.65;6.349999;;;;;;;2.23;97.33301;96228.53;;;;
2022/01/28 03:38:27;;;;;;;10.65;6.349999;;;;;;;2.23;97.33301;96228.53;;;;
2022/01/28 03:39:27;;;;;;;10.65;6.349999;;;;;;;2.23;97.33301;96228.53;;;;
2022/01/28 03:40:28;;;;;;;10.65;6.349999;;;;;;;2.23;97.33301;96228.53;;;;
2022/01/28 03:41:31;;;;;;;10.65;6.349999;;;;;;;2.23;97.33301;96228.53;;;;
2022/01/28 03:42:31;;;;;;;10.65;6.349999;;;;;;;2.23;97.33301;96228.53;;;;
2022/01/28 03:43:32;;;;;;;10.75;6.45;;;;;;;2.35;97.18164;96238.79;;;;
2022/01/28 03:44:34;;;;;;;10.75;6.45;;;;;;;2.35;97.18164;96238.79;;;;
2022/01/28 03:45:35;;;;;;;10.75;6.45;;;;;;;2.35;97.18164;96238.79;;;;
2022/01/28 03:46:35;;;;;;;10.75;6.45;;;;;;;2.35;97.18164;96238.79;;;;
2022/01/28 03:47:36;;;;;;;10.75;6.45;;;;;;;2.35;97.18164;96238.79;;;;
2022/01/28 03:48:37;;;;;;;10.75;6.45;;;;;;;2.35;97.18164;96238.79;;;;
2022/01/28 03:49:38;;;;;;;10.75;6.45;;;;;;;2.35;97.18164;96238.79;;;;
2022/01/28 03:50:38;;;;;;;10.75;6.45;;;;;;;2.35;97.18164;96238.79;;;;
2022/01/28 03:51:39;;;;;;;10.75;6.45;;;;;;;2.35;97.18164;96238.79;;;;
2022/01/28 03:52:39;;;;;;;10.75;6.45;;;;;;;2.35;97.18164;96238.79;;;;
2022/01/28 03:53:40;;;;;;;10.1;6.1;;;;;;;2.39;96.97363;96260.13;;;;
2022/01/28 03:54:41;;;;;;;10.1;6.1;;;;;;;2.39;96.97363;96260.13;;;;
2022/01/28 03:55:41;;;;;;;10.1;6.1;;;;;;;2.39;96.97363;96260.13;;;;
2022/01/28 03:56:42;;;;;;;10.1;6.1;;;;;;;2.39;96.97363;96260.13;;;;
2022/01/28 03:57:43;;;;;;;10.1;6.1;;;;;;;2.39;96.97363;96260.13;;;;
2022/01/28 03:58:44;;;;;;;10.1;6.1;;;;;;;2.39;96.97363;96260.13;;;;
2022/01/28 03:59:44;;;;;;;10.1;6.1;;;;;;;2.39;96.97363;96260.13;;;;
2022/01/28 04:00:45;;;;;;;10.1;6.1;;;;;;;2.39;96.97363;96260.13;;;;
2022/01/28 04:01:48;;;;;;;10.1;6.1;;;;;;;2.39;96.97363;96260.13;;;;
2022/01/28 04:02:57;;;;;;;10.1;6.1;;;;;;;2.39;96.97363;96260.13;;;;
2022/01/28 04:14:36;;;;;;;8.000001;5.400001;;;;;;;2.42;97.22949;96253.55;;;;
2022/01/28 04:15:50;;;;;;;9;5.95;;;;;;;2.49;97.68457;96270.98;;;;
2022/01/28 04:17:23;;;;;;;9;5.95;;;;;;;2.49;97.68457;96270.98;;;;
2022/01/28 04:18:23;;;;;;;9;5.95;;;;;;;2.49;97.68457;96270.98;;;;
2022/01/28 04:19:24;;;;;;;9;5.95;;;;;;;2.49;97.68457;96270.98;;;;
2022/01/28 04:20:25;;;;;;;9;5.95;;;;;;;2.49;97.68457;96270.98;;;;
2022/01/28 04:21:25;;;;;;;9;5.95;;;;;;;2.49;97.68457;96270.98;;;;
2022/01/28 04:22:26;;;;;;;9;5.95;;;;;;;2.49;97.68457;96270.98;;;;
2022/01/28 04:23:26;;;;;;;9;5.95;;;;;;;2.49;97.68457;96270.98;;;;
2022/01/28 04:24:27;;;;;;;9;5.95;;;;;;;2.49;97.68457;96270.98;;;;
2022/01/28 04:25:27;;;;;;;9;5.95;;;;;;;2.49;97.68457;96270.98;;;;
2022/01/28 04:26:28;;;;;;;8.049998;5.6;;;;;;;2.53;97.83984;96272.82;;;;
2022/01/28 04:27:28;;;;;;;8.049998;5.6;;;;;;;2.53;97.83984;96272.82;;;;
2022/01/28 04:28:29;;;;;;;8.049998;5.6;;;;;;;2.53;97.83984;96272.82;;;;
2022/01/28 04:29:29;;;;;;;8.049998;5.6;;;;;;;2.53;97.83984;96272.82;;;;
2022/01/28 04:30:30;;;;;;;8.049998;5.6;;;;;;;2.53;97.83984;96272.82;;;;
2022/01/28 04:31:30;;;;;;;8.049998;5.6;;;;;;;2.53;97.83984;96272.82;;;;
2022/01/28 04:32:32;;;;;;;8.049998;5.6;;;;;;;2.53;97.83984;96272.82;;;;
2022/01/28 04:33:33;;;;;;;8.049998;5.6;;;;;;;2.53;97.83984;96272.82;;;;
2022/01/28 04:34:33;;;;;;;8.049998;5.6;;;;;;;2.53;97.83984;96272.82;;;;
2022/01/28 04:35:34;;;;;;;8.049998;5.6;;;;;;;2.53;97.83984;96272.82;;;;
2022/01/28 04:36:39;;;;;;;7.7;5.599999;;;;;;;2.56;97.87891;96283.99;;;;
2022/01/28 04:37:48;;;;;;;7.7;5.599999;;;;;;;2.56;97.87891;96283.99;;;;
2022/01/28 04:38:55;;;;;;;7.7;5.599999;;;;;;;2.56;97.87891;96283.99;;;;
2022/01/28 04:40:01;;;;;;;7.7;5.599999;;;;;;;2.56;97.87891;96283.99;;;;
2022/01/28 04:41:10;;;;;;;7.7;5.599999;;;;;;;2.56;97.87891;96283.99;;;;
2022/01/28 04:42:20;;;;;;;7.7;5.599999;;;;;;;2.56;97.87891;96283.99;;;;
2022/01/28 04:43:26;;;;;;;7.7;5.599999;;;;;;;2.56;97.87891;96283.99;;;;
2022/01/28 04:44:35;;;;;;;7.7;5.599999;;;;;;;2.56;97.87891;96283.99;;;;
2022/01/28 04:45:43;;;;;;;7.7;5.599999;;;;;;;2.56;97.87891;96283.99;;;;
2022/01/28 04:46:49;;;;;;;7.7;5.599999;;;;;;;2.56;97.87891;96283.99;;;;
2022/01/28 04:48:01;;;;;;;9.000001;5.449999;;;;;;;2.51;97.66797;96275.23;;;;
2022/01/28 04:49:08;;;;;;;9.000001;5.449999;;;;;;;2.51;97.66797;96275.23;;;;
2022/01/28 04:50:16;;;;;;;9.000001;5.449999;;;;;;;2.51;97.66797;96275.23;;;;
2022/01/28 04:51:27;;;;;;;9.000001;5.449999;;;;;;;2.51;97.66797;96275.23;;;;
2022/01/28 04:57:56;;;;;;;9.5;5.9;;;;;;;2.37;97.76953;96286.1;;;;
2022/01/28 04:59:17;;;;;;;9.5;5.9;;;;;;;2.37;97.76953;96286.1;;;;
2022/01/28 05:00:26;;;;;;;9.5;5.9;;;;;;;2.37;97.76953;96286.1;;;;
2022/01/28 05:02:04;;;;;;;9.5;5.9;;;;;;;2.37;97.76953;96286.1;;;;
2022/01/28 05:03:23;;;;;;;9.5;5.9;;;;;;;2.37;97.76953;96286.1;;;;
2022/01/28 05:04:45;;;;;;;9.5;5.9;;;;;;;2.37;97.76953;96286.1;;;;
2022/01/28 05:06:22;;;;;;;9.5;5.9;;;;;;;2.37;97.76953;96286.1;;;;
2022/01/28 05:07:53;;;;;;;9.5;5.9;;;;;;;2.37;97.76953;96286.1;;;;
2022/01/28 05:09:39;;;;;;;8.500001;6;;;;;;;2.32;98.17773;96309.21;;;;
2022/01/28 05:11:19;;;;;;;8.500001;6;;;;;;;2.32;98.17773;96309.21;;;;
2022/01/28 05:12:53;;;;;;;8.500001;6;;;;;;;2.32;98.17773;96309.21;;;;
2022/01/28 05:14:17;;;;;;;8.500001;6;;;;;;;2.32;98.17773;96309.21;;;;
2022/01/28 05:15:40;;;;;;;8.500001;6;;;;;;;2.32;98.17773;96309.21;;;;
2022/01/28 05:17:03;;;;;;;8.500001;6;;;;;;;2.32;98.17773;96309.21;;;;
2022/01/28 05:23:31;;;;;;;9.900001;6;;;;;;;2.3;98.47363;96303.73;;;;
2022/01/28 05:25:10;;;;;;;9.900001;6;;;;;;;2.3;98.47363;96303.73;;;;
2022/01/28 05:26:24;;;;;;;9.900001;6;;;;;;;2.3;98.47363;96303.73;;;;
2022/01/28 05:27:27;;;;;;;9.900001;6;;;;;;;2.3;98.47363;96303.73;;;;
2022/01/28 05:28:28;;;;;;;9.900001;6;;;;;;;2.3;98.47363;96303.73;;;;
2022/01/28 05:29:29;;;;;;;9.900001;6;;;;;;;2.3;98.47363;96303.73;;;;
2022/01/28 05:30:29;;;;;;;8.299998;5.35;;;;;;;2.28;98.64648;96299.05;;;;
2022/01/28 05:31:30;;;;;;;8.299998;5.35;;;;;;;2.28;98.64648;96299.05;;;;
2022/01/28 05:32:31;;;;;;;8.299998;5.35;;;;;;;2.28;98.64648;96299.05;;;;
2022/01/28 05:33:31;;;;;;;8.299998;5.35;;;;;;;2.28;98.64648;96299.05;;;;
2022/01/28 05:34:32;;;;;;;8.299998;5.35;;;;;;;2.28;98.64648;96299.05;;;;
2022/01/28 05:35:33;;;;;;;8.299998;5.35;;;;;;;2.28;98.64648;96299.05;;;;
2022/01/28 05:36:34;;;;;;;8.299998;5.35;;;;;;;2.28;98.64648;96299.05;;;;
2022/01/28 05:37:35;;;;;;;8.299998;5.35;;;;;;;2.28;98.64648;96299.05;;;;
2022/01/28 05:38:35;;;;;;;8.299998;5.35;;;;;;;2.28;98.64648;96299.05;;;;
2022/01/28 05:39:36;;;;;;;8.299998;5.35;;;;;;;2.28;98.64648;96299.05;;;;
2022/01/28 05:40:36;;;;;;;8.250001;5.249999;;;;;;;2.24;98.75488;96294.55;;;;
2022/01/28 05:41:37;;;;;;;8.250001;5.249999;;;;;;;2.24;98.75488;96294.55;;;;
2022/01/28 05:42:37;;;;;;;8.250001;5.249999;;;;;;;2.24;98.75488;96294.55;;;;
2022/01/28 05:43:38;;;;;;;8.250001;5.249999;;;;;;;2.24;98.75488;96294.55;;;;
2022/01/28 05:44:38;;;;;;;8.250001;5.249999;;;;;;;2.24;98.75488;96294.55;;;;
2022/01/28 05:45:40;;;;;;;8.250001;5.249999;;;;;;;2.24;98.75488;96294.55;;;;
2022/01/28 05:46:40;;;;;;;8.250001;5.249999;;;;;;;2.24;98.75488;96294.55;;;;
2022/01/28 05:47:41;;;;;;;8.250001;5.249999;;;;;;;2.24;98.75488;96294.55;;;;
2022/01/28 05:48:42;;;;;;;8.250001;5.249999;;;;;;;2.24;98.75488;96294.55;;;;
2022/01/28 05:49:43;;;;;;;8.250001;5.249999;;;;;;;2.24;98.75488;96294.55;;;;
2022/01/28 05:50:44;;;;;;;8.250001;5.249999;;;;;;;2.24;98.75488;96294.55;;;;
2022/01/28 05:51:44;;;;;;;8.75;5.599999;;;;;;;2.26;99.12109;96317.44;;;;
2022/01/28 05:52:45;;;;;;;8.75;5.599999;;;;;;;2.26;99.12109;96317.44;;;;
2022/01/28 05:53:45;;;;;;;8.75;5.599999;;;;;;;2.26;99.12109;96317.44;;;;
2022/01/28 05:54:46;;;;;;;8.75;5.599999;;;;;;;2.26;99.12109;96317.44;;;;
2022/01/28 05:55:46;;;;;;;8.75;5.599999;;;;;;;2.26;99.12109;96317.44;;;;
2022/01/28 05:56:47;;;;;;;8.75;5.599999;;;;;;;2.26;99.12109;96317.44;;;;
2022/01/28 05:57:47;;;;;;;8.75;5.599999;;;;;;;2.26;99.12109;96317.44;;;;
2022/01/28 05:58:48;;;;;;;8.75;5.599999;;;;;;;2.26;99.12109;96317.44;;;;
2022/01/28 05:59:48;;;;;;;8.75;5.599999;;;;;;;2.26;99.12109;96317.44;;;;
2022/01/28 06:00:49;;;;;;;8.75;5.599999;;;;;;;2.26;99.12109;96317.44;;;;
2022/01/28 06:01:49;;;;;;;8.15;5.3;;;;;;;2.3;99.28809;96335.6;;;;
2022/01/28 06:02:50;;;;;;;8.15;5.3;;;;;;;2.3;99.28809;96335.6;;;;
2022/01/28 06:03:50;;;;;;;8.15;5.3;;;;;;;2.3;99.28809;96335.6;;;;
2022/01/28 06:04:52;;;;;;;8.15;5.3;;;;;;;2.3;99.28809;96335.6;;;;
2022/01/28 06:05:52;;;;;;;8.15;5.3;;;;;;;2.3;99.28809;96335.6;;;;
2022/01/28 06:06:53;;;;;;;8.15;5.3;;;;;;;2.3;99.28809;96335.6;;;;
2022/01/28 06:07:53;;;;;;;8.15;5.3;;;;;;;2.3;99.28809;96335.6;;;;
2022/01/28 06:08:53;;;;;;;8.15;5.3;;;;;;;2.3;99.28809;96335.6;;;;
2022/01/28 06:09:55;;;;;;;8.15;5.3;;;;;;;2.3;99.28809;96335.6;;;;
2022/01/28 06:10:56;;;;;;;8.15;5.3;;;;;;;2.3;99.28809;96335.6;;;;
2022/01/28 06:11:56;;;;;;;8.15;5.3;;;;;;;2.3;99.28809;96335.6;;;;
2022/01/28 06:12:57;;;;;;;7.8;5.1;;;;;;;2.25;99.51465;96351.23;;;;
2022/01/28 06:13:57;;;;;;;7.8;5.1;;;;;;;2.25;99.51465;96351.23;;;;
2022/01/28 06:14:58;;;;;;;7.8;5.1;;;;;;;2.25;99.51465;96351.23;;;;
2022/01/28 06:15:58;;;;;;;7.8;5.1;;;;;;;2.25;99.51465;96351.23;;;;
2022/01/28 06:16:59;;;;;;;7.8;5.1;;;;;;;2.25;99.51465;96351.23;;;;
2022/01/28 06:17:59;;;;;;;7.8;5.1;;;;;;;2.25;99.51465;96351.23;;;;
2022/01/28 06:19:00;;;;;;;7.8;5.1;;;;;;;2.25;99.51465;96351.23;;;;
2022/01/28 06:20:00;;;;;;;7.8;5.1;;;;;;;2.25;99.51465;96351.23;;;;
2022/01/28 06:21:02;;;;;;;7.8;5.1;;;;;;;2.25;99.51465;96351.23;;;;
2022/01/28 06:22:03;;;;;;;7.8;5.1;;;;;;;2.25;99.51465;96351.23;;;;
2022/01/28 06:23:04;;;;;;;7.849999;4.95;;;;;;;2.09;99.66797;96364.89;;;;
2022/01/28 06:24:05;;;;;;;7.849999;4.95;;;;;;;2.09;99.66797;96364.89;;;;
2022/01/28 06:25:06;;;;;;;7.849999;4.95;;;;;;;2.09;99.66797;96364.89;;;;
2022/01/28 06:26:08;;;;;;;7.849999;4.95;;;;;;;2.09;99.66797;96364.89;;;;
2022/01/28 06:27:09;;;;;;;7.849999;4.95;;;;;;;2.09;99.66797;96364.89;;;;
2022/01/28 06:28:09;;;;;;;7.849999;4.95;;;;;;;2.09;99.66797;96364.89;;;;
2022/01/28 06:29:12;;;;;;;7.849999;4.95;;;;;;;2.09;99.66797;96364.89;;;;
2022/01/28 06:30:13;;;;;;;7.849999;4.95;;;;;;;2.09;99.66797;96364.89;;;;
2022/01/28 06:31:14;;;;;;;7.849999;4.95;;;;;;;2.09;99.66797;96364.89;;;;
2022/01/28 06:32:15;;;;;;;7.849999;4.95;;;;;;;2.09;99.66797;96364.89;;;;
2022/01/28 06:33:16;;;;;;;7.849999;4.95;;;;;;;2.09;99.66797;96364.89;;;;
2022/01/28 06:34:16;;;;;;;8.899999;5.6;;;;;;;1.86;99.9668;96382.87;;;;
2022/01/28 06:35:17;;;;;;;8.899999;5.6;;;;;;;1.86;99.9668;96382.87;;;;
2022/01/28 06:36:19;;;;;;;8.899999;5.6;;;;;;;1.86;99.9668;96382.87;;;;
2022/01/28 06:37:20;;;;;;;8.899999;5.6;;;;;;;1.86;99.9668;96382.87;;;;
2022/01/28 06:38:21;;;;;;;8.899999;5.6;;;;;;;1.86;99.9668;96382.87;;;;
2022/01/28 06:39:21;;;;;;;8.899999;5.6;;;;;;;1.86;99.9668;96382.87;;;;
2022/01/28 06:40:22;;;;;;;8.899999;5.6;;;;;;;1.86;99.9668;96382.87;;;;
2022/01/28 06:41:22;;;;;;;8.899999;5.6;;;;;;;1.86;99.9668;96382.87;;;;
2022/01/28 06:42:23;;;;;;;8.899999;5.6;;;;;;;1.86;99.9668;96382.87;;;;